Time;durP1;ratioP1;P1;durP2;ratioP2;P2;SDS_P1;SDS_P2;PMS_P1;PMS_P2;Temp;Humidity;BMP_temperature;BMP_pressure;BME280_temperature;BME280_humidity;BME280_pressure;Samples;Min_cycle;Max_cycle;Signal;HPM_P1;HPM_P2
2022/01/18 00:00:30;;;;;;;9.43;2.10;;;0.60;99.90;;;;;;5093715;28;20228;-86
2022/01/18 00:02:58;;;;;;;10.70;2.50;;;0.60;99.90;;;;;;5093821;28;20278;-86
2022/01/18 00:05:26;;;;;;;9.03;2.00;;;0.60;1.00;;;;;;5093833;28;20191;-86
2022/01/18 00:07:53;;;;;;;11.67;2.77;;;0.50;1.00;;;;;;5093660;28;20199;-85
2022/01/18 00:10:22;;;;;;;11.13;2.57;;;0.60;1.00;;;;;;5093433;28;20215;-86
2022/01/18 00:13:23;;;;;;;12.93;2.67;;;0.60;1.00;;;;;;5093581;28;20286;-87
2022/01/18 00:16:10;;;;;;;14.90;2.73;;;0.50;1.00;;;;;;5093591;28;20210;-86
2022/01/18 00:18:39;;;;;;;10.90;2.40;;;0.50;1.00;;;;;;5093718;28;20186;-86
2022/01/18 00:21:21;;;;;;;15.20;2.97;;;0.50;1.00;;;;;;5093375;28;20252;-86
2022/01/18 00:23:52;;;;;;;9.10;2.73;;;0.40;1.00;;;;;;5093537;28;20629;-85
2022/01/18 00:26:20;;;;;;;14.03;2.93;;;0.50;1.00;;;;;;5091143;28;20202;-85
2022/01/18 00:28:53;;;;;;;8.73;2.40;;;0.40;1.00;;;;;;5088856;28;20187;-86
2022/01/18 00:31:39;;;;;;;12.33;2.93;;;0.40;1.00;;;;;;5089863;28;20225;-85
2022/01/18 00:34:11;;;;;;;13.53;2.40;;;0.40;1.00;;;;;;5092536;28;20726;-85
2022/01/18 00:36:42;;;;;;;9.97;3.60;;;0.40;1.00;;;;;;5091504;28;20278;-85
2022/01/18 00:39:11;;;;;;;12.90;2.67;;;0.40;1.00;;;;;;5093042;28;20175;-85
2022/01/18 00:41:40;;;;;;;9.60;2.17;;;0.40;1.00;;;;;;5092902;28;20675;-86
2022/01/18 00:44:10;;;;;;;10.23;2.57;;;0.40;1.00;;;;;;5093201;28;20188;-87
2022/01/18 00:46:39;;;;;;;12.50;2.60;;;0.40;1.00;;;;;;5093505;28;20237;-86
2022/01/18 00:49:06;;;;;;;12.27;2.47;;;0.40;1.00;;;;;;5093244;28;20206;-85
2022/01/18 00:51:38;;;;;;;14.57;3.03;;;0.40;1.00;;;;;;5092644;28;20214;-86
2022/01/18 00:54:06;;;;;;;11.63;2.77;;;0.30;1.00;;;;;;5092818;28;20191;-85
2022/01/18 00:56:40;;;;;;;8.43;2.37;;;0.30;1.00;;;;;;5092240;28;20248;-87
2022/01/18 00:59:09;;;;;;;11.43;1.93;;;0.30;1.00;;;;;;5091946;28;20690;-85
2022/01/18 01:01:36;;;;;;;9.87;2.23;;;0.30;1.00;;;;;;5092506;28;20203;-87
2022/01/18 01:04:05;;;;;;;10.93;2.50;;;0.30;1.00;;;;;;5092657;28;20222;-87
2022/01/18 01:06:34;;;;;;;8.70;2.20;;;0.30;1.00;;;;;;5092586;28;20202;-87
2022/01/18 01:09:02;;;;;;;12.50;2.53;;;0.30;1.00;;;;;;5092857;28;20614;-87
2022/01/18 01:11:30;;;;;;;11.93;2.47;;;0.20;1.00;;;;;;5092828;28;20223;-86
2022/01/18 01:14:00;;;;;;;13.87;3.00;;;0.30;1.00;;;;;;5092716;28;20248;-86
2022/01/18 01:33:44;;;;;;;13.63;2.33;;;0.20;1.00;;;;;;5092746;28;20224;-86
2022/01/18 01:36:33;;;;;;;13.97;3.00;;;0.20;1.00;;;;;;5092046;28;20234;-86
2022/01/18 01:42:07;;;;;;;21.30;3.43;;;0.10;1.00;;;;;;5092087;28;20187;-85
2022/01/18 01:44:46;;;;;;;13.03;2.70;;;0.10;1.00;;;;;;5092503;28;20545;-86
2022/01/18 01:47:18;;;;;;;13.30;2.73;;;0.10;1.00;;;;;;5092636;28;20179;-86
2022/01/18 01:49:49;;;;;;;9.50;2.47;;;0.10;1.00;;;;;;5092330;28;20190;-86
2022/01/18 01:52:16;;;;;;;15.03;2.60;;;0.10;1.00;;;;;;5092466;28;20183;-86
2022/01/18 01:54:43;;;;;;;14.00;3.00;;;0.00;1.00;;;;;;5092376;28;20191;-86
2022/01/18 01:57:10;;;;;;;17.90;2.70;;;0.10;1.00;;;;;;5092487;28;20191;-86
2022/01/18 01:59:40;;;;;;;9.73;2.80;;;0.10;1.00;;;;;;5092368;28;20192;-86
2022/01/18 02:02:07;;;;;;;13.07;2.80;;;0.00;1.00;;;;;;5092029;28;20584;-85
2022/01/18 02:04:34;;;;;;;10.53;2.93;;;0.00;1.00;;;;;;5092188;28;20207;-85
2022/01/18 02:07:03;;;;;;;11.40;3.00;;;0.00;1.00;;;;;;5092485;28;20285;-85
2022/01/18 02:09:30;;;;;;;13.20;2.80;;;0.00;1.00;;;;;;5095154;28;20199;-85
2022/01/18 02:12:00;;;;;;;14.43;3.37;;;0.00;1.00;;;;;;5095739;28;20214;-85
2022/01/18 02:14:28;;;;;;;15.20;3.30;;;0.00;1.00;;;;;;5095817;28;20226;-87
2022/01/18 02:22:26;;;;;;;12.70;2.60;;;-0.10;1.00;;;;;;5075483;28;20187;-86
2022/01/18 02:24:53;;;;;;;12.77;3.03;;;-0.10;1.00;;;;;;5084397;28;20256;-86
2022/01/18 02:27:20;;;;;;;16.30;3.20;;;-0.10;1.00;;;;;;5095576;28;20244;-86
2022/01/18 02:29:47;;;;;;;12.37;2.60;;;-0.10;1.00;;;;;;5095515;28;20195;-86
2022/01/18 02:32:15;;;;;;;21.90;3.47;;;-0.10;1.00;;;;;;5095568;28;20268;-86
2022/01/18 02:34:42;;;;;;;16.60;3.40;;;-0.10;1.00;;;;;;5095796;28;20191;-86
2022/01/18 02:37:10;;;;;;;15.30;3.50;;;-0.10;1.00;;;;;;5095570;28;20614;-86
2022/01/18 02:39:39;;;;;;;12.90;3.00;;;-0.10;1.00;;;;;;5095757;28;20188;-86
2022/01/18 02:42:08;;;;;;;13.00;2.77;;;-0.20;1.00;;;;;;5095712;28;20286;-86
2022/01/18 02:44:36;;;;;;;11.97;2.90;;;-0.20;1.00;;;;;;5096061;28;20183;-86
2022/01/18 02:47:04;;;;;;;20.37;4.10;;;-0.20;1.00;;;;;;5095430;28;20245;-87
2022/01/18 02:49:32;;;;;;;19.53;3.50;;;-0.10;1.00;;;;;;5094813;28;20191;-87
2022/01/18 02:52:00;;;;;;;14.67;2.93;;;-0.20;1.00;;;;;;5095045;28;20221;-86
2022/01/18 02:54:28;;;;;;;21.20;3.67;;;-0.10;1.00;;;;;;5094944;28;20661;-85
2022/01/18 02:57:01;;;;;;;13.17;3.00;;;-0.10;1.00;;;;;;5095304;28;20191;-85
2022/01/18 02:59:33;;;;;;;19.33;3.50;;;-0.10;1.00;;;;;;5095306;28;20568;-85
2022/01/18 03:04:49;;;;;;;16.27;3.23;;;-0.10;1.00;;;;;;5095048;28;20277;-85
2022/01/18 03:07:17;;;;;;;16.80;3.50;;;-0.10;1.00;;;;;;5094936;28;20211;-85
2022/01/18 03:09:44;;;;;;;19.63;3.60;;;-0.10;1.00;;;;;;5095085;28;20248;-85
2022/01/18 03:12:15;;;;;;;12.90;3.17;;;-0.10;1.00;;;;;;5094948;28;20225;-85
2022/01/18 03:14:42;;;;;;;20.67;3.37;;;-0.10;1.00;;;;;;5094479;28;20725;-85
2022/01/18 03:17:09;;;;;;;22.50;4.03;;;-0.10;1.00;;;;;;5094719;28;20339;-85
2022/01/18 03:19:37;;;;;;;22.47;3.50;;;-0.10;1.00;;;;;;5094769;28;20600;-85
2022/01/18 03:22:06;;;;;;;10.80;3.33;;;-0.10;1.00;;;;;;5094879;28;20226;-86
2022/01/18 03:24:46;;;;;;;11.00;2.90;;;-0.10;1.00;;;;;;5094441;28;20605;-86
2022/01/18 03:30:02;;;;;;;14.87;3.20;;;-0.10;1.00;;;;;;5094505;28;20182;-85
2022/01/18 03:32:29;;;;;;;15.23;3.07;;;-0.10;1.00;;;;;;5094506;28;20218;-86
2022/01/18 03:34:56;;;;;;;16.93;3.53;;;-0.10;1.00;;;;;;5094588;28;20191;-85
2022/01/18 03:37:23;;;;;;;20.07;3.07;;;-0.10;1.00;;;;;;5094552;28;20746;-85
2022/01/18 03:39:50;;;;;;;17.47;3.30;;;-0.10;1.00;;;;;;5094472;28;20195;-86
2022/01/18 03:45:08;;;;;;;22.50;4.40;;;-0.10;1.00;;;;;;5090202;28;20657;-85
2022/01/18 03:47:35;;;;;;;26.30;3.93;;;-0.10;1.00;;;;;;5094041;28;20587;-85
2022/01/18 03:50:04;;;;;;;17.77;3.03;;;-0.10;1.00;;;;;;5093692;28;20191;-85
2022/01/18 03:52:31;;;;;;;21.47;3.47;;;-0.10;1.00;;;;;;5093468;28;20264;-85
2022/01/18 03:54:58;;;;;;;16.37;3.47;;;-0.10;1.00;;;;;;5094192;28;20267;-85
2022/01/18 03:57:27;;;;;;;15.90;3.60;;;-0.20;1.00;;;;;;5093801;28;20190;-86
2022/01/18 03:59:54;;;;;;;15.37;2.87;;;-0.20;1.00;;;;;;5093713;28;20199;-85
2022/01/18 04:02:21;;;;;;;19.77;3.10;;;-0.20;1.00;;;;;;5094082;28;20645;-85
2022/01/18 04:04:48;;;;;;;21.73;3.37;;;-0.20;1.00;;;;;;5093631;28;20248;-85
2022/01/18 04:07:15;;;;;;;18.83;3.33;;;-0.20;1.00;;;;;;5093596;28;20595;-87
2022/01/18 04:09:42;;;;;;;19.23;3.60;;;-0.20;1.00;;;;;;5093834;28;20252;-86
2022/01/18 04:12:10;;;;;;;14.67;3.63;;;-0.20;1.00;;;;;;5093499;28;20202;-86
2022/01/18 04:14:38;;;;;;;15.67;3.23;;;-0.20;1.00;;;;;;5093850;28;20187;-86
2022/01/18 04:17:13;;;;;;;22.67;3.97;;;-0.20;1.00;;;;;;5093787;28;20187;-86
2022/01/18 04:28:01;;;;;;;14.00;3.17;;;-0.30;1.00;;;;;;5093166;28;20743;-85
2022/01/18 04:30:29;;;;;;;12.93;2.97;;;-0.30;1.00;;;;;;5093411;28;20269;-84
2022/01/18 04:32:56;;;;;;;17.83;3.13;;;-0.40;1.00;;;;;;5092971;28;20219;-85
2022/01/18 04:35:23;;;;;;;21.40;3.80;;;-0.40;1.00;;;;;;5093543;28;20244;-85
2022/01/18 04:37:50;;;;;;;25.70;3.67;;;-0.50;1.00;;;;;;5093387;28;20592;-86
2022/01/18 04:40:19;;;;;;;20.67;3.27;;;-0.50;1.00;;;;;;5093394;28;20268;-85
2022/01/18 04:43:05;;;;;;;21.20;3.23;;;-0.50;1.00;;;;;;5092697;28;20244;-86
2022/01/18 04:48:31;;;;;;;17.23;3.20;;;-0.50;1.00;;;;;;5093080;28;20538;-86
2022/01/18 04:51:01;;;;;;;14.13;3.47;;;-0.60;1.00;;;;;;5093019;28;20187;-86
2022/01/18 04:53:31;;;;;;;19.63;3.80;;;-0.60;1.00;;;;;;5093386;28;20244;-85
2022/01/18 04:56:02;;;;;;;13.40;3.33;;;-0.60;1.00;;;;;;5093113;28;20372;-86
2022/01/18 04:58:28;;;;;;;20.07;3.53;;;-0.60;1.00;;;;;;5092988;28;20190;-86
2022/01/18 05:01:00;;;;;;;21.40;3.43;;;-0.70;1.00;;;;;;5092659;28;20229;-85
2022/01/18 05:03:28;;;;;;;18.90;4.03;;;-0.70;1.00;;;;;;5092687;28;20182;-85
2022/01/18 05:05:59;;;;;;;22.97;4.03;;;-0.70;1.00;;;;;;5092954;28;20191;-85
2022/01/18 05:08:26;;;;;;;18.17;3.60;;;-0.70;1.00;;;;;;5092925;28;20191;-85
2022/01/18 05:10:55;;;;;;;22.43;3.43;;;-0.70;1.00;;;;;;5092492;28;20649;-85
2022/01/18 05:13:43;;;;;;;19.97;3.73;;;-0.70;1.00;;;;;;5092086;28;20191;-85
2022/01/18 05:16:42;;;;;;;20.63;3.77;;;-0.70;1.00;;;;;;5092786;28;20187;-85
2022/01/18 05:19:16;;;;;;;24.23;3.90;;;-0.70;1.00;;;;;;5092724;28;20191;-87
2022/01/18 05:24:30;;;;;;;20.10;4.17;;;-0.70;1.00;;;;;;5092492;28;20249;-85
2022/01/18 05:26:59;;;;;;;20.93;3.93;;;-0.70;1.00;;;;;;5093038;28;20188;-86
2022/01/18 05:29:27;;;;;;;17.73;4.57;;;-0.70;1.00;;;;;;5092741;28;20191;-85
2022/01/18 05:31:56;;;;;;;19.50;4.03;;;-0.70;1.00;;;;;;5092539;28;20214;-86
2022/01/18 05:34:23;;;;;;;20.83;4.17;;;-0.70;1.00;;;;;;5092664;28;20244;-87
2022/01/18 05:36:50;;;;;;;16.97;4.03;;;-0.70;1.00;;;;;;5085101;28;20219;-86
2022/01/18 05:39:17;;;;;;;18.33;4.60;;;-0.70;1.00;;;;;;5086114;28;20195;-85
2022/01/18 05:41:46;;;;;;;21.00;4.60;;;-0.80;1.00;;;;;;5090522;28;20195;-85
2022/01/18 05:44:13;;;;;;;42.00;7.20;;;-0.80;1.00;;;;;;5096527;28;20653;-86
2022/01/18 05:46:40;;;;;;;30.27;9.97;;;-0.80;1.00;;;;;;5096649;28;20195;-86
2022/01/18 05:49:09;;;;;;;19.17;6.83;;;-0.80;1.00;;;;;;5096683;28;20191;-85
2022/01/18 05:51:37;;;;;;;40.57;12.30;;;-0.80;1.00;;;;;;5095074;28;20214;-86
2022/01/18 05:54:06;;;;;;;51.27;17.80;;;-0.80;1.00;;;;;;5092518;28;20202;-85
2022/01/18 05:56:34;;;;;;;62.60;24.80;;;-0.80;1.00;;;;;;5082992;28;20282;-85
2022/01/18 05:59:03;;;;;;;43.20;19.33;;;-0.80;1.00;;;;;;5081842;28;20549;-84
2022/01/18 06:01:35;;;;;;;35.27;12.90;;;-0.80;1.00;;;;;;5090418;28;20695;-86
2022/01/18 06:04:15;;;;;;;44.73;15.80;;;-0.80;1.00;;;;;;5096197;28;20187;-84
2022/01/18 06:06:53;;;;;;;69.23;22.67;;;-0.80;1.00;;;;;;5096035;28;20184;-84
2022/01/18 06:09:24;;;;;;;94.63;31.87;;;-0.80;1.00;;;;;;5096395;28;20144;-85
2022/01/18 06:11:51;;;;;;;72.40;23.30;;;-0.80;1.00;;;;;;5095555;28;20195;-85
2022/01/18 06:14:19;;;;;;;61.80;20.10;;;-0.90;1.00;;;;;;5096077;28;20191;-85
2022/01/18 06:16:46;;;;;;;52.50;19.23;;;-0.90;1.00;;;;;;5096129;28;20240;-84
2022/01/18 06:19:13;;;;;;;65.20;21.07;;;-0.90;1.00;;;;;;5096145;28;20191;-86
2022/01/18 06:21:58;;;;;;;54.13;17.97;;;-0.90;1.00;;;;;;5096012;28;20199;-85
2022/01/18 06:24:26;;;;;;;54.03;16.93;;;-0.90;1.00;;;;;;5096352;28;20252;-87
2022/01/18 06:26:53;;;;;;;41.30;10.97;;;-0.90;1.00;;;;;;5095896;28;20222;-86
2022/01/18 06:29:21;;;;;;;25.47;9.63;;;-0.90;1.00;;;;;;5095673;28;20260;-87
2022/01/18 06:31:48;;;;;;;;;;;-0.90;1.00;;;;;;5081664;28;20216;-86
2022/01/18 06:34:15;;;;;;;33.63;10.17;;;-0.90;1.00;;;;;;5075594;28;20639;-85
2022/01/18 06:36:43;;;;;;;30.40;9.90;;;-0.90;1.00;;;;;;5086064;28;20231;-86
2022/01/18 06:39:10;;;;;;;24.03;8.03;;;-0.90;1.00;;;;;;5095758;28;20203;-85
2022/01/18 06:41:39;;;;;;;24.13;7.37;;;-0.90;1.00;;;;;;5095291;28;20598;-87
2022/01/18 06:44:06;;;;;;;29.77;6.90;;;-0.90;1.00;;;;;;5095112;28;20196;-87
2022/01/18 06:46:33;;;;;;;30.40;8.97;;;-0.90;1.00;;;;;;5095290;28;20195;-85
2022/01/18 06:49:00;;;;;;;37.57;8.63;;;-0.90;1.00;;;;;;5095753;28;20193;-86
2022/01/18 06:51:27;;;;;;;23.17;6.77;;;-0.90;1.00;;;;;;5095399;28;20191;-84
2022/01/18 06:53:56;;;;;;;;;;;-0.90;1.00;;;;;;5094980;28;20541;-85
2022/01/18 06:56:22;;;;;;;;;;;-0.90;1.00;;;;;;5095466;28;20013;-85
2022/01/18 06:58:50;;;;;;;;;;;-0.80;1.00;;;;;;5095588;28;20472;-85
2022/01/18 07:01:17;;;;;;;;;;;-0.80;1.00;;;;;;5096098;28;19976;-85
2022/01/18 07:03:45;;;;;;;;;;;-0.80;1.00;;;;;;5095275;28;20022;-85
2022/01/18 07:06:12;;;;;;;;;;;-0.80;1.00;;;;;;5095535;28;20004;-85
2022/01/18 07:08:38;;;;;;;;;;;-0.80;1.00;;;;;;5095133;28;19968;-85
2022/01/18 07:11:07;;;;;;;;;;;-0.80;1.00;;;;;;5095351;28;20012;-85
2022/01/18 07:13:35;;;;;;;;;;;-0.80;1.00;;;;;;5095306;28;19975;-85
2022/01/18 07:16:04;;;;;;;;;;;-0.70;1.00;;;;;;5095081;28;20010;-85
2022/01/18 07:18:31;;;;;;;;;;;-0.70;1.00;;;;;;5094534;28;19968;-85
2022/01/18 07:20:57;;;;;;;;;;;-0.70;1.00;;;;;;5095149;28;19965;-85
2022/01/18 07:23:24;;;;;;;;;;;-0.60;1.00;;;;;;5095238;28;20351;-85
2022/01/18 07:25:53;;;;;;;;;;;-0.50;1.00;;;;;;5095166;28;19967;-86
2022/01/18 07:28:20;;;;;;;;;;;-0.40;1.00;;;;;;5095393;28;19970;-86
2022/01/18 07:30:48;;;;;;;;;;;-0.30;1.00;;;;;;5094567;28;19971;-85
2022/01/18 07:33:16;;;;;;;;;;;-0.20;1.00;;;;;;5094891;28;20057;-85
2022/01/18 07:35:46;;;;;;;;;;;-0.10;1.00;;;;;;5094311;28;20429;-85
2022/01/18 07:38:18;;;;;;;;;;;-0.10;1.00;;;;;;5094734;28;19977;-85
2022/01/18 07:40:45;;;;;;;;;;;0.00;1.00;;;;;;5095075;28;20015;-85
2022/01/18 07:43:16;;;;;;;;;;;0.00;1.00;;;;;;5093868;28;19993;-85
2022/01/18 07:45:44;;;;;;;26.17;6.23;;;0.10;1.00;;;;;;5094098;28;20419;-85
2022/01/18 07:48:12;;;;;;;23.27;6.63;;;0.20;1.00;;;;;;5094308;28;20203;-86
2022/01/18 07:50:43;;;;;;;;;;;0.30;1.00;;;;;;5094043;28;20656;-86
2022/01/18 07:53:11;;;;;;;;;;;0.40;1.00;;;;;;5094737;28;19970;-85
2022/01/18 07:55:38;;;;;;;;;;;0.60;1.00;;;;;;5093930;28;19967;-85
2022/01/18 07:58:07;;;;;;;;;;;0.70;1.00;;;;;;5094229;28;20058;-85
2022/01/18 08:00:35;;;;;;;;;;;0.80;1.00;;;;;;5093642;28;19968;-85
2022/01/18 08:03:07;;;;;;;;;;;0.90;1.00;;;;;;5094024;28;19964;-85
2022/01/18 08:05:36;;;;;;;;;;;0.90;1.00;;;;;;5093218;28;20435;-85
2022/01/18 08:08:09;;;;;;;;;;;0.90;1.00;;;;;;5093305;28;19962;-85
2022/01/18 08:10:39;;;;;;;;;;;1.00;1.00;;;;;;5093645;28;20010;-85
2022/01/18 08:13:09;;;;;;;;;;;1.10;1.00;;;;;;5094088;28;19963;-85
2022/01/18 08:15:38;;;;;;;;;;;1.10;1.00;;;;;;5093867;28;20053;-84
2022/01/18 08:18:10;;;;;;;;;;;1.20;1.00;;;;;;5093870;28;20023;-85
2022/01/18 08:20:45;;;;;;;;;;;1.20;1.00;;;;;;5093643;28;20442;-85
2022/01/18 08:23:17;;;;;;;;;;;1.30;1.00;;;;;;5094220;28;19973;-85
2022/01/18 08:25:44;;;;;;;;;;;1.30;1.00;;;;;;5093784;28;19972;-84
2022/01/18 08:28:11;;;;;;;;;;;1.50;1.00;;;;;;5093092;28;20074;-86
2022/01/18 08:30:41;;;;;;;;;;;1.60;1.00;;;;;;5093147;28;20006;-84
2022/01/18 08:33:08;;;;;;;;;;;1.60;1.00;;;;;;5089255;28;20064;-84
2022/01/18 08:35:37;;;;;;;;;;;1.70;1.00;;;;;;5092851;28;19978;-84
2022/01/18 08:38:04;;;;;;;;;;;1.80;1.00;;;;;;5092982;28;20063;-84
2022/01/18 08:40:33;;;;;;;;;;;1.90;1.00;;;;;;5093197;28;20017;-83
2022/01/18 08:43:00;;;;;;;;;;;2.20;1.00;;;;;;5093410;28;20376;-83
2022/01/18 08:45:30;;;;;;;;;;;2.50;1.00;;;;;;5092669;28;19973;-82
2022/01/18 08:47:58;;;;;;;;;;;2.70;1.00;;;;;;5091005;28;20044;-82
2022/01/18 08:50:27;;;;;;;22.40;8.80;;;2.80;99.90;;;;;;5092226;28;20360;-82
2022/01/18 08:53:03;;;;;;;39.33;15.50;;;3.10;99.90;;;;;;5089310;28;20297;-83
2022/01/18 08:55:38;;;;;;;25.47;12.37;;;3.30;99.90;;;;;;5091680;28;20209;-81
2022/01/18 08:58:10;;;;;;;23.97;10.23;;;3.50;91.70;;;;;;5092818;28;20603;-82
2022/01/18 09:00:38;;;;;;;19.60;7.53;;;3.60;17.00;;;;;;5092615;28;20237;-82
2022/01/18 09:03:06;;;;;;;16.33;6.07;;;3.70;1.00;;;;;;5091936;28;20203;-81
2022/01/18 09:05:43;;;;;;;22.27;7.23;;;3.90;1.00;;;;;;5092301;28;20195;-83
2022/01/18 09:08:19;;;;;;;27.70;13.17;;;4.00;1.00;;;;;;5092235;28;20207;-82
2022/01/18 09:10:52;;;;;;;62.97;27.70;;;4.00;1.00;;;;;;5092118;28;20274;-84
2022/01/18 09:13:28;;;;;;;42.63;22.53;;;4.00;1.00;;;;;;5092290;28;20203;-82
2022/01/18 09:16:01;;;;;;;38.27;24.90;;;3.90;1.00;;;;;;5092691;28;20258;-82
2022/01/18 09:18:30;;;;;;;37.03;20.73;;;3.80;1.00;;;;;;5091706;28;20195;-83
2022/01/18 09:20:59;;;;;;;;;;;3.60;1.00;;;;;;5091333;28;20188;-83
2022/01/18 09:23:31;;;;;;;474.50;215.90;;;3.60;1.00;;;;;;5091875;28;20469;-81
2022/01/18 09:26:16;;;;;;;;;;;3.40;1.00;;;;;;5092487;28;20190;-82
2022/01/18 09:29:09;;;;;;;49.80;27.70;;;3.30;1.00;;;;;;5092123;28;20516;-83
2022/01/18 09:31:43;;;;;;;65.10;34.97;;;3.30;1.00;;;;;;5089930;28;20229;-82
2022/01/18 09:34:22;;;;;;;84.23;48.13;;;3.30;1.00;;;;;;5090619;28;20297;-83
2022/01/18 09:37:18;;;;;;;53.47;27.97;;;3.30;1.00;;;;;;5089627;28;20222;-82
2022/01/18 09:39:53;;;;;;;41.33;19.53;;;3.20;1.00;;;;;;5091467;28;20224;-82
2022/01/18 09:42:31;;;;;;;24.60;9.10;;;3.20;1.00;;;;;;5092395;28;20244;-83
2022/01/18 09:45:12;;;;;;;22.60;8.07;;;3.20;1.00;;;;;;5091817;28;20262;-82
2022/01/18 09:47:44;;;;;;;23.87;8.13;;;3.10;1.00;;;;;;5092184;28;20183;-82
2022/01/18 09:50:18;;;;;;;20.70;7.33;;;3.20;1.00;;;;;;5091565;28;20197;-81
2022/01/18 09:52:53;;;;;;;21.20;7.20;;;3.20;1.00;;;;;;5091730;28;20252;-81
2022/01/18 09:55:35;;;;;;;23.20;7.47;;;3.20;1.00;;;;;;5076038;28;20270;-82
2022/01/18 09:58:07;;;;;;;20.70;7.03;;;3.20;1.00;;;;;;5074142;28;20191;-82
2022/01/18 10:00:43;;;;;;;27.17;7.83;;;3.20;1.00;;;;;;5076286;28;20202;-83
2022/01/18 10:03:27;;;;;;;28.73;9.00;;;3.20;1.00;;;;;;5073373;28;20190;-83
2022/01/18 10:06:00;;;;;;;23.20;9.13;;;3.20;1.00;;;;;;5074561;28;20324;-83
2022/01/18 10:08:33;;;;;;;34.73;13.27;;;3.20;1.00;;;;;;5070670;28;20613;-82
2022/01/18 10:11:14;;;;;;;39.57;12.90;;;3.20;1.00;;;;;;5075049;28;20194;-83
2022/01/18 10:13:46;;;;;;;24.90;9.50;;;3.20;1.00;;;;;;5083763;28;20207;-82
2022/01/18 10:16:18;;;;;;;25.13;9.53;;;3.20;1.00;;;;;;5082717;28;20222;-83
2022/01/18 10:19:00;;;;;;;23.23;9.47;;;3.20;1.00;;;;;;5083470;28;20202;-84
2022/01/18 10:21:31;;;;;;;30.77;9.90;;;3.20;1.00;;;;;;5081545;28;20234;-84
2022/01/18 10:24:28;;;;;;;28.37;8.10;;;3.20;1.00;;;;;;5083286;28;20560;-82
2022/01/18 10:27:00;;;;;;;26.63;8.03;;;3.20;1.00;;;;;;5087970;28;20274;-84
2022/01/18 10:29:37;;;;;;;20.80;8.57;;;3.10;1.00;;;;;;5089157;28;20187;-84
2022/01/18 10:35:59;;;;;;;29.43;9.10;;;3.10;1.00;;;;;;5096268;28;20202;-82
2022/01/18 10:38:28;;;;;;;26.30;8.77;;;3.20;1.00;;;;;;5085959;28;20187;-83
2022/01/18 10:40:55;;;;;;;26.97;9.13;;;3.10;1.00;;;;;;5089059;28;20185;-83
2022/01/18 10:43:33;;;;;;;22.67;9.03;;;3.10;1.00;;;;;;5093544;28;20567;-83
2022/01/18 10:46:13;;;;;;;26.67;9.47;;;3.10;1.00;;;;;;5086660;28;20534;-83
2022/01/18 10:48:46;;;;;;;31.67;9.87;;;3.20;1.00;;;;;;5093488;28;20721;-84
2022/01/18 10:51:27;;;;;;;27.17;9.80;;;3.20;1.00;;;;;;5096842;28;20237;-83
2022/01/18 10:54:00;;;;;;;30.70;9.73;;;3.20;1.00;;;;;;5075331;28;20214;-84
2022/01/18 10:56:37;;;;;;;23.27;9.47;;;3.20;1.00;;;;;;5090998;28;20208;-83
2022/01/18 10:59:04;;;;;;;32.17;13.40;;;3.20;1.00;;;;;;5096215;28;20184;-83
2022/01/18 11:01:32;;;;;;;67.53;26.03;;;3.20;1.00;;;;;;5096273;28;20199;-84
2022/01/18 11:04:11;;;;;;;61.20;26.67;;;3.30;1.00;;;;;;5094982;28;20367;-83
2022/01/18 11:06:39;;;;;;;114.40;49.33;;;3.40;1.00;;;;;;5095406;28;20556;-85
2022/01/18 11:09:15;;;;;;;50.30;20.90;;;3.40;1.00;;;;;;5094090;28;20625;-83
2022/01/18 11:11:44;;;;;;;35.90;17.40;;;3.40;1.00;;;;;;5093753;28;20204;-84
2022/01/18 11:14:11;;;;;;;40.93;16.90;;;3.40;1.00;;;;;;5094494;28;20214;-83
2022/01/18 11:16:43;;;;;;;64.03;32.60;;;3.40;1.00;;;;;;5095281;28;20270;-85
2022/01/18 11:19:28;;;;;;;38.37;17.77;;;3.50;1.00;;;;;;5094101;28;20267;-83
2022/01/18 11:21:57;;;;;;;30.97;13.60;;;3.50;1.00;;;;;;5095860;28;20204;-85
2022/01/18 11:24:28;;;;;;;32.43;13.80;;;3.50;1.00;;;;;;5094948;28;20195;-84
2022/01/18 11:26:56;;;;;;;35.00;13.27;;;3.50;1.00;;;;;;5094996;28;20644;-84
2022/01/18 11:29:25;;;;;;;29.47;12.17;;;3.60;1.00;;;;;;5093215;28;20190;-84
2022/01/18 11:31:54;;;;;;;37.83;15.03;;;3.60;1.00;;;;;;5094029;28;20187;-84
2022/01/18 11:34:32;;;;;;;38.63;16.37;;;3.70;1.00;;;;;;5094653;28;20292;-83
2022/01/18 11:37:09;;;;;;;32.43;12.77;;;3.70;1.00;;;;;;5094356;28;20268;-84
2022/01/18 11:39:37;;;;;;;52.67;22.53;;;3.80;1.00;;;;;;5094606;28;20236;-85
2022/01/18 11:42:13;;;;;;;58.93;22.47;;;3.80;1.00;;;;;;5094481;28;20191;-84
2022/01/18 11:44:40;;;;;;;55.00;21.83;;;3.90;1.00;;;;;;5093791;28;20194;-85
2022/01/18 11:47:09;;;;;;;74.00;30.07;;;3.90;1.00;;;;;;5094345;28;20649;-86
2022/01/18 11:49:37;;;;;;;60.10;20.03;;;4.00;1.00;;;;;;5094091;28;20190;-86
2022/01/18 11:52:09;;;;;;;38.50;13.90;;;4.10;1.00;;;;;;5094512;28;20191;-86
2022/01/18 11:54:44;;;;;;;26.70;10.60;;;4.20;1.00;;;;;;5094351;28;20208;-84
2022/01/18 11:57:34;;;;;;;29.83;11.90;;;4.30;1.00;;;;;;5091542;28;20192;-84
2022/01/18 12:00:43;;;;;;;21.03;8.33;;;4.40;1.00;;;;;;5093850;28;20645;-82
2022/01/18 12:03:18;;;;;;;28.57;11.87;;;4.40;1.00;;;;;;5051103;28;20320;-83
2022/01/18 12:05:45;;;;;;;31.43;12.30;;;4.40;1.00;;;;;;5051441;28;20185;-85
2022/01/18 12:08:30;;;;;;;70.20;28.27;;;4.30;1.00;;;;;;5050002;28;20246;-84
2022/01/18 12:10:59;;;;;;;51.70;20.40;;;4.20;1.00;;;;;;5037037;28;20598;-83
2022/01/18 12:13:29;;;;;;;96.30;35.77;;;4.20;1.00;;;;;;5050591;28;20660;-83
2022/01/18 12:15:58;;;;;;;69.23;25.77;;;4.20;1.00;;;;;;5035575;28;20196;-84
2022/01/18 12:18:26;;;;;;;25.93;11.33;;;4.30;1.00;;;;;;5051196;28;20196;-83
2022/01/18 12:20:55;;;;;;;50.17;21.73;;;4.30;1.00;;;;;;5050677;28;20196;-83
2022/01/18 12:23:25;;;;;;;46.17;17.50;;;4.50;1.00;;;;;;5050472;28;20250;-86
2022/01/18 12:25:58;;;;;;;54.53;30.63;;;4.70;1.00;;;;;;5050702;28;20201;-86
2022/01/18 12:32:04;;;;;;;;;;;5.00;1.00;;;;;;5043865;28;19974;-85
2022/01/18 12:34:32;;;;;;;;;;;5.10;1.00;;;;;;5083789;28;19965;-85
2022/01/18 12:37:23;;;;;;;;;;;4.90;99.90;;;;;;5094034;28;19966;-85
2022/01/18 12:40:05;;;;;;;41.03;20.87;;;4.80;99.90;;;;;;5093096;28;20372;-84
2022/01/18 12:45:22;;;;;;;39.17;16.57;;;4.50;99.90;;;;;;5087844;28;20202;-85
2022/01/18 12:47:52;;;;;;;25.27;11.90;;;4.30;99.90;;;;;;5093134;28;20271;-84
2022/01/18 12:50:22;;;;;;;28.83;10.20;;;4.30;99.90;;;;;;5092870;28;20215;-84
2022/01/18 12:52:51;;;;;;;22.87;9.20;;;4.30;99.90;;;;;;5091785;28;20205;-83
2022/01/18 12:55:42;;;;;;;21.93;8.67;;;4.30;99.90;;;;;;5092509;28;20225;-84
2022/01/18 12:58:11;;;;;;;23.33;6.07;;;4.30;99.90;;;;;;5087700;28;20192;-84
2022/01/18 13:00:47;;;;;;;17.23;6.20;;;4.30;99.90;;;;;;5092747;28;20217;-84
2022/01/18 13:03:19;;;;;;;20.47;5.83;;;4.40;99.90;;;;;;5092601;28;20187;-86
2022/01/18 13:05:48;;;;;;;22.47;5.90;;;4.50;99.90;;;;;;5092209;28;20709;-85
2022/01/18 13:08:18;;;;;;;18.80;5.67;;;4.60;99.90;;;;;;5091985;28;20188;-84
2022/01/18 13:10:47;;;;;;;16.67;5.27;;;4.60;99.90;;;;;;5092832;28;20187;-86
2022/01/18 13:13:19;;;;;;;13.63;4.30;;;4.60;99.90;;;;;;5092347;28;20673;-86
2022/01/18 13:16:06;;;;;;;19.57;5.37;;;4.50;99.90;;;;;;5091551;28;20641;-85
2022/01/18 13:26:51;;;;;;;24.50;6.40;;;4.30;99.90;;;;;;5082881;28;20191;-84
2022/01/18 13:29:22;;;;;;;24.83;7.00;;;4.20;99.90;;;;;;5091670;28;20278;-85
2022/01/18 13:32:06;;;;;;;21.30;7.63;;;4.10;99.90;;;;;;5092329;28;20529;-86
2022/01/18 13:34:36;;;;;;;18.67;6.73;;;4.10;99.90;;;;;;5092262;28;20238;-87
2022/01/18 13:37:07;;;;;;;23.40;7.57;;;4.00;99.90;;;;;;5091958;28;20638;-86
2022/01/18 13:39:37;;;;;;;24.70;7.67;;;4.00;99.90;;;;;;5091724;28;20649;-85
2022/01/18 13:42:06;;;;;;;25.80;7.57;;;3.90;99.90;;;;;;5090733;28;20179;-85
2022/01/18 13:44:33;;;;;;;23.57;5.90;;;3.90;99.90;;;;;;5089192;28;20199;-84
2022/01/18 13:47:16;;;;;;;17.07;5.13;;;3.90;99.90;;;;;;5092194;28;20245;-86
2022/01/18 13:49:43;;;;;;;20.23;5.33;;;3.80;99.90;;;;;;5090661;28;20187;-87
2022/01/18 13:52:12;;;;;;;18.53;5.20;;;3.70;99.90;;;;;;5092062;28;20183;-85
2022/01/18 13:54:50;;;;;;;24.40;6.10;;;3.70;99.90;;;;;;5084751;28;20609;-86
2022/01/18 13:57:18;;;;;;;19.00;5.40;;;3.60;99.90;;;;;;5073277;28;20195;-85
2022/01/18 13:59:46;;;;;;;19.77;5.77;;;3.60;99.90;;;;;;5072964;28;20188;-85
2022/01/18 14:02:16;;;;;;;;;;;3.50;99.90;;;;;;5082170;28;20199;-85
2022/01/18 14:04:43;;;;;;;;;;;3.50;99.90;;;;;;5079912;28;20498;-86
2022/01/18 14:07:10;;;;;;;;;;;3.40;99.90;;;;;;5088584;28;19960;-85
2022/01/18 14:09:37;;;;;;;40.93;23.03;;;3.40;99.90;;;;;;5079532;28;20374;-85
2022/01/18 14:12:06;;;;;;;47.40;24.43;;;3.40;99.90;;;;;;5086028;28;20726;-85
2022/01/18 14:14:34;;;;;;;59.47;29.10;;;3.30;99.90;;;;;;5096099;28;20256;-85
2022/01/18 14:17:03;;;;;;;96.27;44.83;;;3.30;99.90;;;;;;5095761;28;20199;-85
2022/01/18 14:19:33;;;;;;;26.80;10.27;;;3.20;99.90;;;;;;5095590;28;20598;-85
2022/01/18 14:22:03;;;;;;;20.10;6.70;;;3.10;99.90;;;;;;5088923;28;20191;-86
2022/01/18 14:24:38;;;;;;;34.23;13.23;;;3.10;99.90;;;;;;5082353;28;20245;-86
2022/01/18 14:27:08;;;;;;;60.80;23.63;;;3.10;99.90;;;;;;5084247;28;20195;-85
2022/01/18 14:29:52;;;;;;;39.80;17.20;;;3.00;99.90;;;;;;5084996;28;20188;-85
2022/01/18 14:32:26;;;;;;;19.37;7.63;;;3.00;99.90;;;;;;5087692;28;20276;-84